sensor_id;sensor_type;location;lat;lon;timestamp;P1;durP1;ratioP1;P2;durP2;ratioP2
50417;SDS011;36346;48.280;14.292;2023-09-30T00:01:38;11.53;;;11.53;;
50417;SDS011;36346;48.280;14.292;2023-09-30T00:04:06;11.59;;;11.59;;
50417;SDS011;36346;48.280;14.292;2023-09-30T00:06:35;11.50;;;11.50;;
50417;SDS011;36346;48.280;14.292;2023-09-30T00:09:03;11.45;;;11.45;;
50417;SDS011;36346;48.280;14.292;2023-09-30T00:11:31;11.12;;;11.12;;
50417;SDS011;36346;48.280;14.292;2023-09-30T00:13:59;11.21;;;11.21;;
50417;SDS011;36346;48.280;14.292;2023-09-30T00:16:27;10.61;;;10.61;;
50417;SDS011;36346;48.280;14.292;2023-09-30T00:18:55;10.65;;;10.65;;
50417;SDS011;36346;48.280;14.292;2023-09-30T00:21:24;9.95;;;9.95;;
50417;SDS011;36346;48.280;14.292;2023-09-30T00:23:52;10.25;;;10.25;;
50417;SDS011;36346;48.280;14.292;2023-09-30T00:26:22;10.06;;;10.06;;
50417;SDS011;36346;48.280;14.292;2023-09-30T00:28:51;9.94;;;9.94;;
50417;SDS011;36346;48.280;14.292;2023-09-30T00:31:19;9.56;;;9.56;;
50417;SDS011;36346;48.280;14.292;2023-09-30T00:33:46;9.24;;;9.24;;
50417;SDS011;36346;48.280;14.292;2023-09-30T00:36:15;9.00;;;9.00;;
50417;SDS011;36346;48.280;14.292;2023-09-30T00:38:45;8.32;;;8.32;;
50417;SDS011;36346;48.280;14.292;2023-09-30T00:41:12;8.30;;;8.30;;
50417;SDS011;36346;48.280;14.292;2023-09-30T00:43:41;8.61;;;8.61;;
50417;SDS011;36346;48.280;14.292;2023-09-30T00:48:59;8.90;;;8.90;;
50417;SDS011;36346;48.280;14.292;2023-09-30T00:51:29;8.40;;;8.40;;
50417;SDS011;36346;48.280;14.292;2023-09-30T00:53:58;8.34;;;8.34;;
50417;SDS011;36346;48.280;14.292;2023-09-30T00:56:28;8.38;;;8.38;;
50417;SDS011;36346;48.280;14.292;2023-09-30T00:58:58;8.44;;;8.44;;
50417;SDS011;36346;48.280;14.292;2023-09-30T01:01:26;9.06;;;9.06;;
50417;SDS011;36346;48.280;14.292;2023-09-30T01:03:54;8.11;;;8.11;;
50417;SDS011;36346;48.280;14.292;2023-09-30T01:06:23;8.73;;;8.73;;
50417;SDS011;36346;48.280;14.292;2023-09-30T01:08:51;8.93;;;8.93;;
50417;SDS011;36346;48.280;14.292;2023-09-30T01:11:21;8.71;;;8.71;;
50417;SDS011;36346;48.280;14.292;2023-09-30T01:13:49;8.76;;;8.76;;
50417;SDS011;36346;48.280;14.292;2023-09-30T01:16:17;8.53;;;8.53;;
50417;SDS011;36346;48.280;14.292;2023-09-30T01:18:45;8.03;;;8.03;;
50417;SDS011;36346;48.280;14.292;2023-09-30T01:21:14;9.20;;;9.20;;
50417;SDS011;36346;48.280;14.292;2023-09-30T01:23:42;9.05;;;9.04;;
50417;SDS011;36346;48.280;14.292;2023-09-30T01:26:13;8.80;;;8.80;;
50417;SDS011;36346;48.280;14.292;2023-09-30T01:28:42;8.63;;;8.63;;
50417;SDS011;36346;48.280;14.292;2023-09-30T01:31:10;8.32;;;8.32;;
50417;SDS011;36346;48.280;14.292;2023-09-30T01:33:38;8.96;;;8.96;;
50417;SDS011;36346;48.280;14.292;2023-09-30T01:36:06;8.24;;;8.24;;
50417;SDS011;36346;48.280;14.292;2023-09-30T01:38:36;8.42;;;8.42;;
50417;SDS011;36346;48.280;14.292;2023-09-30T01:41:04;8.29;;;8.29;;
50417;SDS011;36346;48.280;14.292;2023-09-30T01:43:33;8.50;;;8.50;;
50417;SDS011;36346;48.280;14.292;2023-09-30T01:46:03;8.47;;;8.47;;
50417;SDS011;36346;48.280;14.292;2023-09-30T01:48:33;8.10;;;8.10;;
50417;SDS011;36346;48.280;14.292;2023-09-30T01:51:02;8.04;;;8.04;;
50417;SDS011;36346;48.280;14.292;2023-09-30T01:53:30;8.43;;;8.43;;
50417;SDS011;36346;48.280;14.292;2023-09-30T01:55:58;8.30;;;8.30;;
50417;SDS011;36346;48.280;14.292;2023-09-30T01:58:26;8.05;;;8.05;;
50417;SDS011;36346;48.280;14.292;2023-09-30T02:01:00;9.01;;;9.01;;
50417;SDS011;36346;48.280;14.292;2023-09-30T02:03:30;9.27;;;9.27;;
50417;SDS011;36346;48.280;14.292;2023-09-30T02:05:59;8.84;;;8.84;;
50417;SDS011;36346;48.280;14.292;2023-09-30T02:08:27;8.91;;;8.91;;
50417;SDS011;36346;48.280;14.292;2023-09-30T02:10:55;9.57;;;9.57;;
50417;SDS011;36346;48.280;14.292;2023-09-30T02:13:23;9.34;;;9.34;;
50417;SDS011;36346;48.280;14.292;2023-09-30T02:15:51;9.51;;;9.51;;
50417;SDS011;36346;48.280;14.292;2023-09-30T02:18:19;9.56;;;9.56;;
50417;SDS011;36346;48.280;14.292;2023-09-30T02:20:47;9.80;;;9.80;;
50417;SDS011;36346;48.280;14.292;2023-09-30T02:23:16;9.88;;;9.87;;
50417;SDS011;36346;48.280;14.292;2023-09-30T02:25:45;10.12;;;10.07;;
50417;SDS011;36346;48.280;14.292;2023-09-30T02:28:13;9.83;;;9.79;;
50417;SDS011;36346;48.280;14.292;2023-09-30T02:30:41;9.70;;;9.70;;
50417;SDS011;36346;48.280;14.292;2023-09-30T02:33:09;9.73;;;9.72;;
50417;SDS011;36346;48.280;14.292;2023-09-30T02:35:38;9.89;;;9.89;;
50417;SDS011;36346;48.280;14.292;2023-09-30T02:38:12;10.00;;;9.96;;
50417;SDS011;36346;48.280;14.292;2023-09-30T02:40:41;9.35;;;9.32;;
50417;SDS011;36346;48.280;14.292;2023-09-30T02:43:12;9.39;;;9.35;;
50417;SDS011;36346;48.280;14.292;2023-09-30T02:45:41;8.77;;;8.74;;
50417;SDS011;36346;48.280;14.292;2023-09-30T02:48:09;8.94;;;8.93;;
50417;SDS011;36346;48.280;14.292;2023-09-30T02:50:37;9.11;;;9.10;;
50417;SDS011;36346;48.280;14.292;2023-09-30T02:53:07;9.65;;;9.63;;
50417;SDS011;36346;48.280;14.292;2023-09-30T02:55:35;8.96;;;8.92;;
50417;SDS011;36346;48.280;14.292;2023-09-30T02:58:03;9.50;;;9.48;;
50417;SDS011;36346;48.280;14.292;2023-09-30T03:00:31;9.45;;;9.45;;
50417;SDS011;36346;48.280;14.292;2023-09-30T03:03:03;10.11;;;10.09;;
50417;SDS011;36346;48.280;14.292;2023-09-30T03:05:31;10.08;;;10.02;;
50417;SDS011;36346;48.280;14.292;2023-09-30T03:08:00;9.98;;;9.92;;
50417;SDS011;36346;48.280;14.292;2023-09-30T03:10:29;10.29;;;10.23;;
50417;SDS011;36346;48.280;14.292;2023-09-30T03:12:57;10.98;;;10.75;;
50417;SDS011;36346;48.280;14.292;2023-09-30T03:15:29;11.15;;;10.94;;
50417;SDS011;36346;48.280;14.292;2023-09-30T03:18:02;10.64;;;10.51;;
50417;SDS011;36346;48.280;14.292;2023-09-30T03:20:31;11.19;;;10.97;;
50417;SDS011;36346;48.280;14.292;2023-09-30T03:22:59;12.18;;;11.83;;
50417;SDS011;36346;48.280;14.292;2023-09-30T03:25:27;12.31;;;11.77;;
50417;SDS011;36346;48.280;14.292;2023-09-30T03:27:58;12.60;;;12.00;;
50417;SDS011;36346;48.280;14.292;2023-09-30T03:30:26;13.12;;;12.27;;
50417;SDS011;36346;48.280;14.292;2023-09-30T03:32:53;12.30;;;11.64;;
50417;SDS011;36346;48.280;14.292;2023-09-30T03:35:22;13.73;;;12.88;;
50417;SDS011;36346;48.280;14.292;2023-09-30T03:37:51;13.29;;;12.40;;
50417;SDS011;36346;48.280;14.292;2023-09-30T03:40:19;13.16;;;12.36;;
50417;SDS011;36346;48.280;14.292;2023-09-30T03:42:48;12.81;;;12.13;;
50417;SDS011;36346;48.280;14.292;2023-09-30T03:45:19;13.22;;;12.34;;
50417;SDS011;36346;48.280;14.292;2023-09-30T03:47:47;12.72;;;11.83;;
50417;SDS011;36346;48.280;14.292;2023-09-30T03:50:16;13.83;;;12.89;;
50417;SDS011;36346;48.280;14.292;2023-09-30T03:52:44;14.64;;;13.12;;
50417;SDS011;36346;48.280;14.292;2023-09-30T03:55:16;14.12;;;12.67;;
50417;SDS011;36346;48.280;14.292;2023-09-30T03:57:45;13.12;;;12.10;;
50417;SDS011;36346;48.280;14.292;2023-09-30T04:00:15;13.40;;;12.15;;
50417;SDS011;36346;48.280;14.292;2023-09-30T04:02:48;13.42;;;12.32;;
50417;SDS011;36346;48.280;14.292;2023-09-30T04:05:18;13.78;;;12.50;;
50417;SDS011;36346;48.280;14.292;2023-09-30T04:07:47;13.02;;;12.07;;
50417;SDS011;36346;48.280;14.292;2023-09-30T04:10:15;12.81;;;11.97;;
50417;SDS011;36346;48.280;14.292;2023-09-30T04:12:44;12.50;;;11.56;;
50417;SDS011;36346;48.280;14.292;2023-09-30T04:15:12;12.80;;;11.89;;
50417;SDS011;36346;48.280;14.292;2023-09-30T04:17:40;12.49;;;11.68;;
50417;SDS011;36346;48.280;14.292;2023-09-30T04:20:09;12.59;;;11.71;;
50417;SDS011;36346;48.280;14.292;2023-09-30T04:22:39;13.05;;;12.07;;
50417;SDS011;36346;48.280;14.292;2023-09-30T04:25:08;12.82;;;12.01;;
50417;SDS011;36346;48.280;14.292;2023-09-30T04:27:38;12.22;;;11.42;;
50417;SDS011;36346;48.280;14.292;2023-09-30T04:30:06;13.55;;;12.22;;
50417;SDS011;36346;48.280;14.292;2023-09-30T04:32:36;13.43;;;12.07;;
50417;SDS011;36346;48.280;14.292;2023-09-30T04:35:06;13.93;;;12.53;;
50417;SDS011;36346;48.280;14.292;2023-09-30T04:37:37;13.42;;;12.20;;
50417;SDS011;36346;48.280;14.292;2023-09-30T04:40:07;13.31;;;12.17;;
50417;SDS011;36346;48.280;14.292;2023-09-30T04:42:47;12.89;;;11.80;;
50417;SDS011;36346;48.280;14.292;2023-09-30T04:45:17;13.44;;;12.10;;
50417;SDS011;36346;48.280;14.292;2023-09-30T04:47:48;13.00;;;11.72;;
50417;SDS011;36346;48.280;14.292;2023-09-30T04:50:17;12.49;;;11.54;;
50417;SDS011;36346;48.280;14.292;2023-09-30T04:52:45;12.73;;;11.83;;
50417;SDS011;36346;48.280;14.292;2023-09-30T04:55:13;12.89;;;11.84;;
50417;SDS011;36346;48.280;14.292;2023-09-30T04:57:44;12.80;;;11.77;;
50417;SDS011;36346;48.280;14.292;2023-09-30T05:00:14;12.59;;;11.56;;
50417;SDS011;36346;48.280;14.292;2023-09-30T05:02:44;13.85;;;12.30;;
50417;SDS011;36346;48.280;14.292;2023-09-30T05:05:18;14.06;;;12.04;;
50417;SDS011;36346;48.280;14.292;2023-09-30T05:07:46;13.22;;;11.95;;
50417;SDS011;36346;48.280;14.292;2023-09-30T05:10:18;13.63;;;12.30;;
50417;SDS011;36346;48.280;14.292;2023-09-30T05:12:46;13.69;;;12.55;;
50417;SDS011;36346;48.280;14.292;2023-09-30T05:15:15;12.64;;;11.71;;
50417;SDS011;36346;48.280;14.292;2023-09-30T05:17:45;12.99;;;11.66;;
50417;SDS011;36346;48.280;14.292;2023-09-30T05:20:14;13.02;;;11.83;;
50417;SDS011;36346;48.280;14.292;2023-09-30T05:22:46;13.24;;;11.86;;
50417;SDS011;36346;48.280;14.292;2023-09-30T05:25:14;12.42;;;11.27;;
50417;SDS011;36346;48.280;14.292;2023-09-30T05:27:44;13.36;;;12.06;;
50417;SDS011;36346;48.280;14.292;2023-09-30T05:30:12;12.75;;;11.72;;
50417;SDS011;36346;48.280;14.292;2023-09-30T05:32:43;12.97;;;11.87;;
50417;SDS011;36346;48.280;14.292;2023-09-30T05:35:11;13.86;;;12.34;;
50417;SDS011;36346;48.280;14.292;2023-09-30T05:37:44;13.54;;;12.06;;
50417;SDS011;36346;48.280;14.292;2023-09-30T05:40:13;13.23;;;11.96;;
50417;SDS011;36346;48.280;14.292;2023-09-30T05:42:53;13.21;;;11.96;;
50417;SDS011;36346;48.280;14.292;2023-09-30T05:45:22;13.35;;;11.70;;
50417;SDS011;36346;48.280;14.292;2023-09-30T05:47:51;14.24;;;12.39;;
50417;SDS011;36346;48.280;14.292;2023-09-30T05:50:21;13.64;;;11.70;;
50417;SDS011;36346;48.280;14.292;2023-09-30T05:52:53;14.03;;;12.11;;
50417;SDS011;36346;48.280;14.292;2023-09-30T05:55:22;14.36;;;12.49;;
50417;SDS011;36346;48.280;14.292;2023-09-30T05:57:53;12.87;;;11.34;;
50417;SDS011;36346;48.280;14.292;2023-09-30T06:00:22;13.29;;;11.75;;
50417;SDS011;36346;48.280;14.292;2023-09-30T06:02:58;13.92;;;12.34;;
50417;SDS011;36346;48.280;14.292;2023-09-30T06:05:27;14.35;;;12.39;;
50417;SDS011;36346;48.280;14.292;2023-09-30T06:07:59;13.77;;;11.87;;
50417;SDS011;36346;48.280;14.292;2023-09-30T06:10:30;13.09;;;11.69;;
50417;SDS011;36346;48.280;14.292;2023-09-30T06:12:59;13.02;;;11.69;;
50417;SDS011;36346;48.280;14.292;2023-09-30T06:15:27;13.44;;;12.09;;
50417;SDS011;36346;48.280;14.292;2023-09-30T06:17:56;13.33;;;11.54;;
50417;SDS011;36346;48.280;14.292;2023-09-30T06:20:25;12.57;;;11.28;;
50417;SDS011;36346;48.280;14.292;2023-09-30T06:22:55;13.87;;;12.26;;
50417;SDS011;36346;48.280;14.292;2023-09-30T06:25:23;12.95;;;11.74;;
50417;SDS011;36346;48.280;14.292;2023-09-30T06:27:52;13.87;;;12.39;;
50417;SDS011;36346;48.280;14.292;2023-09-30T06:30:22;13.92;;;12.16;;
50417;SDS011;36346;48.280;14.292;2023-09-30T06:32:59;13.28;;;11.91;;
50417;SDS011;36346;48.280;14.292;2023-09-30T06:35:28;13.85;;;12.33;;
50417;SDS011;36346;48.280;14.292;2023-09-30T06:37:58;13.91;;;12.10;;
50417;SDS011;36346;48.280;14.292;2023-09-30T06:40:27;13.37;;;11.80;;
50417;SDS011;36346;48.280;14.292;2023-09-30T06:42:55;13.00;;;11.47;;
50417;SDS011;36346;48.280;14.292;2023-09-30T06:45:24;13.08;;;11.74;;
50417;SDS011;36346;48.280;14.292;2023-09-30T06:47:54;13.65;;;12.11;;
50417;SDS011;36346;48.280;14.292;2023-09-30T06:50:22;14.04;;;12.26;;
50417;SDS011;36346;48.280;14.292;2023-09-30T06:52:51;13.69;;;12.05;;
50417;SDS011;36346;48.280;14.292;2023-09-30T06:55:19;13.29;;;11.75;;
50417;SDS011;36346;48.280;14.292;2023-09-30T06:57:47;13.54;;;11.91;;
50417;SDS011;36346;48.280;14.292;2023-09-30T07:00:15;12.64;;;11.51;;
50417;SDS011;36346;48.280;14.292;2023-09-30T07:02:44;12.17;;;11.12;;
50417;SDS011;36346;48.280;14.292;2023-09-30T07:05:13;12.38;;;11.18;;
50417;SDS011;36346;48.280;14.292;2023-09-30T07:07:42;12.59;;;11.29;;
50417;SDS011;36346;48.280;14.292;2023-09-30T07:10:11;12.21;;;10.92;;
50417;SDS011;36346;48.280;14.292;2023-09-30T07:12:39;13.17;;;11.76;;
50417;SDS011;36346;48.280;14.292;2023-09-30T07:15:09;12.78;;;11.29;;
50417;SDS011;36346;48.280;14.292;2023-09-30T07:17:36;12.70;;;11.27;;
50417;SDS011;36346;48.280;14.292;2023-09-30T07:20:05;11.98;;;10.90;;
50417;SDS011;36346;48.280;14.292;2023-09-30T07:22:34;12.05;;;10.90;;
50417;SDS011;36346;48.280;14.292;2023-09-30T07:25:16;12.09;;;10.79;;
50417;SDS011;36346;48.280;14.292;2023-09-30T07:27:44;12.94;;;11.47;;
50417;SDS011;36346;48.280;14.292;2023-09-30T07:30:13;12.35;;;11.03;;
50417;SDS011;36346;48.280;14.292;2023-09-30T07:32:43;12.54;;;11.16;;
50417;SDS011;36346;48.280;14.292;2023-09-30T07:35:11;12.44;;;10.95;;
50417;SDS011;36346;48.280;14.292;2023-09-30T07:37:41;12.40;;;10.87;;
50417;SDS011;36346;48.280;14.292;2023-09-30T07:40:10;11.37;;;10.13;;
50417;SDS011;36346;48.280;14.292;2023-09-30T07:42:39;12.32;;;10.88;;
50417;SDS011;36346;48.280;14.292;2023-09-30T07:45:08;11.85;;;10.71;;
50417;SDS011;36346;48.280;14.292;2023-09-30T07:47:37;10.80;;;9.81;;
50417;SDS011;36346;48.280;14.292;2023-09-30T07:50:05;10.82;;;9.85;;
50417;SDS011;36346;48.280;14.292;2023-09-30T07:52:38;11.11;;;10.14;;
50417;SDS011;36346;48.280;14.292;2023-09-30T07:55:08;12.32;;;11.05;;
50417;SDS011;36346;48.280;14.292;2023-09-30T07:57:38;12.29;;;10.86;;
50417;SDS011;36346;48.280;14.292;2023-09-30T08:00:07;11.98;;;10.53;;
50417;SDS011;36346;48.280;14.292;2023-09-30T08:02:37;12.06;;;10.78;;
50417;SDS011;36346;48.280;14.292;2023-09-30T08:05:05;11.48;;;10.32;;
50417;SDS011;36346;48.280;14.292;2023-09-30T08:07:34;10.97;;;9.78;;
50417;SDS011;36346;48.280;14.292;2023-09-30T08:10:03;10.38;;;9.18;;
50417;SDS011;36346;48.280;14.292;2023-09-30T08:12:40;10.86;;;9.66;;
50417;SDS011;36346;48.280;14.292;2023-09-30T08:15:09;10.24;;;9.28;;
50417;SDS011;36346;48.280;14.292;2023-09-30T08:17:40;10.59;;;9.57;;
50417;SDS011;36346;48.280;14.292;2023-09-30T08:20:09;10.58;;;9.46;;
50417;SDS011;36346;48.280;14.292;2023-09-30T08:22:37;10.45;;;9.30;;
50417;SDS011;36346;48.280;14.292;2023-09-30T08:25:06;10.46;;;9.47;;
50417;SDS011;36346;48.280;14.292;2023-09-30T08:27:35;10.74;;;9.65;;
50417;SDS011;36346;48.280;14.292;2023-09-30T08:30:04;10.47;;;9.32;;
50417;SDS011;36346;48.280;14.292;2023-09-30T08:32:36;10.17;;;9.26;;
50417;SDS011;36346;48.280;14.292;2023-09-30T08:35:08;10.80;;;9.65;;
50417;SDS011;36346;48.280;14.292;2023-09-30T08:37:37;9.96;;;9.01;;
50417;SDS011;36346;48.280;14.292;2023-09-30T08:40:06;10.61;;;9.60;;
50417;SDS011;36346;48.280;14.292;2023-09-30T08:42:39;10.28;;;9.45;;
50417;SDS011;36346;48.280;14.292;2023-09-30T08:45:08;10.66;;;9.78;;
50417;SDS011;36346;48.280;14.292;2023-09-30T08:47:38;10.03;;;9.30;;
50417;SDS011;36346;48.280;14.292;2023-09-30T08:50:08;10.07;;;9.18;;
50417;SDS011;36346;48.280;14.292;2023-09-30T08:52:38;10.77;;;9.83;;
50417;SDS011;36346;48.280;14.292;2023-09-30T08:55:08;10.03;;;9.10;;
50417;SDS011;36346;48.280;14.292;2023-09-30T08:57:38;9.44;;;8.64;;
50417;SDS011;36346;48.280;14.292;2023-09-30T09:00:11;9.30;;;8.51;;
50417;SDS011;36346;48.280;14.292;2023-09-30T09:02:41;8.97;;;8.27;;
50417;SDS011;36346;48.280;14.292;2023-09-30T09:05:10;9.49;;;8.62;;
50417;SDS011;36346;48.280;14.292;2023-09-30T09:07:39;9.38;;;8.49;;
50417;SDS011;36346;48.280;14.292;2023-09-30T09:10:07;9.11;;;8.20;;
50417;SDS011;36346;48.280;14.292;2023-09-30T09:12:37;9.30;;;8.55;;
50417;SDS011;36346;48.280;14.292;2023-09-30T09:15:07;8.79;;;8.28;;
50417;SDS011;36346;48.280;14.292;2023-09-30T09:17:44;9.08;;;8.34;;
50417;SDS011;36346;48.280;14.292;2023-09-30T09:20:22;8.32;;;7.67;;
50417;SDS011;36346;48.280;14.292;2023-09-30T09:22:53;8.47;;;7.78;;
50417;SDS011;36346;48.280;14.292;2023-09-30T09:25:23;8.67;;;8.01;;
50417;SDS011;36346;48.280;14.292;2023-09-30T09:27:52;8.59;;;8.04;;
50417;SDS011;36346;48.280;14.292;2023-09-30T09:30:23;8.77;;;8.18;;
50417;SDS011;36346;48.280;14.292;2023-09-30T09:32:58;8.40;;;7.93;;
50417;SDS011;36346;48.280;14.292;2023-09-30T09:35:33;9.02;;;8.29;;
50417;SDS011;36346;48.280;14.292;2023-09-30T09:38:03;7.98;;;7.42;;
50417;SDS011;36346;48.280;14.292;2023-09-30T09:40:36;8.43;;;7.76;;
50417;SDS011;36346;48.280;14.292;2023-09-30T09:43:09;8.35;;;7.58;;
50417;SDS011;36346;48.280;14.292;2023-09-30T09:45:38;7.90;;;7.21;;
50417;SDS011;36346;48.280;14.292;2023-09-30T09:48:06;7.56;;;6.99;;
50417;SDS011;36346;48.280;14.292;2023-09-30T09:50:34;7.35;;;6.86;;
50417;SDS011;36346;48.280;14.292;2023-09-30T09:53:06;7.65;;;7.05;;
50417;SDS011;36346;48.280;14.292;2023-09-30T09:55:36;7.43;;;6.82;;
50417;SDS011;36346;48.280;14.292;2023-09-30T09:58:06;7.65;;;7.09;;
50417;SDS011;36346;48.280;14.292;2023-09-30T10:00:35;7.64;;;7.07;;
50417;SDS011;36346;48.280;14.292;2023-09-30T10:03:04;7.75;;;7.05;;
50417;SDS011;36346;48.280;14.292;2023-09-30T10:05:32;8.11;;;7.51;;
50417;SDS011;36346;48.280;14.292;2023-09-30T10:08:05;8.30;;;7.66;;
50417;SDS011;36346;48.280;14.292;2023-09-30T10:10:37;8.05;;;7.39;;
50417;SDS011;36346;48.280;14.292;2023-09-30T10:13:06;7.83;;;7.16;;
50417;SDS011;36346;48.280;14.292;2023-09-30T10:15:36;7.56;;;7.05;;
50417;SDS011;36346;48.280;14.292;2023-09-30T10:20:43;8.88;;;8.14;;
50417;SDS011;36346;48.280;14.292;2023-09-30T10:25:45;7.81;;;7.22;;
50417;SDS011;36346;48.280;14.292;2023-09-30T10:28:34;8.87;;;8.04;;
50417;SDS011;36346;48.280;14.292;2023-09-30T10:31:12;9.53;;;8.44;;
50417;SDS011;36346;48.280;14.292;2023-09-30T10:36:33;10.25;;;8.98;;
50417;SDS011;36346;48.280;14.292;2023-09-30T10:39:02;9.20;;;8.27;;
50417;SDS011;36346;48.280;14.292;2023-09-30T10:41:48;11.08;;;9.78;;
50417;SDS011;36346;48.280;14.292;2023-09-30T10:46:59;10.69;;;9.75;;
50417;SDS011;36346;48.280;14.292;2023-09-30T10:51:57;10.79;;;9.82;;
50417;SDS011;36346;48.280;14.292;2023-09-30T10:54:26;11.73;;;10.60;;
50417;SDS011;36346;48.280;14.292;2023-09-30T10:56:56;12.08;;;10.70;;
50417;SDS011;36346;48.280;14.292;2023-09-30T10:59:27;12.31;;;10.91;;
50417;SDS011;36346;48.280;14.292;2023-09-30T11:01:59;13.97;;;12.34;;
50417;SDS011;36346;48.280;14.292;2023-09-30T11:04:28;13.73;;;11.99;;
50417;SDS011;36346;48.280;14.292;2023-09-30T11:06:56;14.27;;;12.30;;
50417;SDS011;36346;48.280;14.292;2023-09-30T11:09:27;14.39;;;12.34;;
50417;SDS011;36346;48.280;14.292;2023-09-30T11:11:55;15.23;;;13.05;;
50417;SDS011;36346;48.280;14.292;2023-09-30T11:16:59;14.62;;;12.80;;
50417;SDS011;36346;48.280;14.292;2023-09-30T11:19:36;14.38;;;12.46;;
50417;SDS011;36346;48.280;14.292;2023-09-30T11:22:05;13.03;;;11.58;;
50417;SDS011;36346;48.280;14.292;2023-09-30T11:24:36;13.61;;;11.95;;
50417;SDS011;36346;48.280;14.292;2023-09-30T11:27:05;13.26;;;11.82;;
50417;SDS011;36346;48.280;14.292;2023-09-30T11:29:34;13.40;;;11.78;;
50417;SDS011;36346;48.280;14.292;2023-09-30T11:32:02;13.35;;;11.90;;
50417;SDS011;36346;48.280;14.292;2023-09-30T11:34:34;13.63;;;11.97;;
50417;SDS011;36346;48.280;14.292;2023-09-30T11:37:03;13.22;;;11.53;;
50417;SDS011;36346;48.280;14.292;2023-09-30T11:39:33;12.80;;;11.00;;
50417;SDS011;36346;48.280;14.292;2023-09-30T11:42:01;11.76;;;10.48;;
50417;SDS011;36346;48.280;14.292;2023-09-30T11:44:30;11.43;;;10.11;;
50417;SDS011;36346;48.280;14.292;2023-09-30T11:47:02;11.17;;;9.88;;
50417;SDS011;36346;48.280;14.292;2023-09-30T11:49:40;11.15;;;9.91;;
50417;SDS011;36346;48.280;14.292;2023-09-30T11:52:12;10.44;;;9.20;;
50417;SDS011;36346;48.280;14.292;2023-09-30T11:54:43;10.86;;;9.60;;
50417;SDS011;36346;48.280;14.292;2023-09-30T11:57:13;10.40;;;9.14;;
50417;SDS011;36346;48.280;14.292;2023-09-30T11:59:44;10.54;;;8.98;;
50417;SDS011;36346;48.280;14.292;2023-09-30T12:02:13;10.64;;;9.27;;
50417;SDS011;36346;48.280;14.292;2023-09-30T12:04:43;10.40;;;8.98;;
50417;SDS011;36346;48.280;14.292;2023-09-30T12:07:13;10.28;;;9.08;;
50417;SDS011;36346;48.280;14.292;2023-09-30T12:09:41;9.70;;;8.69;;
50417;SDS011;36346;48.280;14.292;2023-09-30T12:12:09;10.85;;;9.62;;
50417;SDS011;36346;48.280;14.292;2023-09-30T12:14:38;10.76;;;9.49;;
50417;SDS011;36346;48.280;14.292;2023-09-30T12:17:06;8.99;;;8.16;;
50417;SDS011;36346;48.280;14.292;2023-09-30T12:19:40;9.75;;;8.87;;
50417;SDS011;36346;48.280;14.292;2023-09-30T12:22:10;9.72;;;8.68;;
50417;SDS011;36346;48.280;14.292;2023-09-30T12:24:38;10.38;;;8.87;;
50417;SDS011;36346;48.280;14.292;2023-09-30T12:27:07;9.20;;;8.13;;
50417;SDS011;36346;48.280;14.292;2023-09-30T12:29:35;8.85;;;7.95;;
50417;SDS011;36346;48.280;14.292;2023-09-30T12:32:06;8.65;;;7.79;;
50417;SDS011;36346;48.280;14.292;2023-09-30T12:34:34;9.23;;;8.29;;
50417;SDS011;36346;48.280;14.292;2023-09-30T12:37:03;9.60;;;8.58;;
50417;SDS011;36346;48.280;14.292;2023-09-30T12:39:31;8.68;;;7.84;;
50417;SDS011;36346;48.280;14.292;2023-09-30T12:42:01;9.16;;;8.22;;
50417;SDS011;36346;48.280;14.292;2023-09-30T12:44:29;9.19;;;8.21;;
50417;SDS011;36346;48.280;14.292;2023-09-30T12:46:57;8.91;;;7.93;;
50417;SDS011;36346;48.280;14.292;2023-09-30T12:49:25;9.03;;;8.13;;
50417;SDS011;36346;48.280;14.292;2023-09-30T12:51:53;10.07;;;9.13;;
50417;SDS011;36346;48.280;14.292;2023-09-30T12:54:21;9.02;;;8.13;;
50417;SDS011;36346;48.280;14.292;2023-09-30T12:56:51;8.64;;;7.85;;
50417;SDS011;36346;48.280;14.292;2023-09-30T12:59:19;9.10;;;8.19;;
50417;SDS011;36346;48.280;14.292;2023-09-30T13:01:47;9.68;;;8.66;;
50417;SDS011;36346;48.280;14.292;2023-09-30T13:04:16;10.14;;;9.10;;
50417;SDS011;36346;48.280;14.292;2023-09-30T13:06:44;9.77;;;8.73;;
50417;SDS011;36346;48.280;14.292;2023-09-30T13:09:12;9.34;;;8.39;;
50417;SDS011;36346;48.280;14.292;2023-09-30T13:11:40;9.05;;;8.17;;
50417;SDS011;36346;48.280;14.292;2023-09-30T13:14:09;9.05;;;8.20;;
50417;SDS011;36346;48.280;14.292;2023-09-30T13:16:37;8.77;;;7.99;;
50417;SDS011;36346;48.280;14.292;2023-09-30T13:19:06;9.33;;;8.37;;
50417;SDS011;36346;48.280;14.292;2023-09-30T13:21:34;9.37;;;8.43;;
50417;SDS011;36346;48.280;14.292;2023-09-30T13:24:02;9.51;;;8.64;;
50417;SDS011;36346;48.280;14.292;2023-09-30T13:26:30;9.90;;;8.92;;
50417;SDS011;36346;48.280;14.292;2023-09-30T13:28:58;9.39;;;8.44;;
50417;SDS011;36346;48.280;14.292;2023-09-30T13:31:26;10.02;;;8.83;;
50417;SDS011;36346;48.280;14.292;2023-09-30T13:33:54;10.52;;;9.30;;
50417;SDS011;36346;48.280;14.292;2023-09-30T13:36:22;10.37;;;9.25;;
50417;SDS011;36346;48.280;14.292;2023-09-30T13:38:50;10.13;;;8.99;;
50417;SDS011;36346;48.280;14.292;2023-09-30T13:41:18;9.19;;;8.37;;
50417;SDS011;36346;48.280;14.292;2023-09-30T13:43:46;9.70;;;8.73;;
50417;SDS011;36346;48.280;14.292;2023-09-30T13:46:14;10.50;;;9.50;;
50417;SDS011;36346;48.280;14.292;2023-09-30T13:48:42;10.21;;;9.28;;
50417;SDS011;36346;48.280;14.292;2023-09-30T13:51:10;10.00;;;9.05;;
50417;SDS011;36346;48.280;14.292;2023-09-30T13:53:39;10.25;;;9.17;;
50417;SDS011;36346;48.280;14.292;2023-09-30T13:56:07;10.17;;;9.11;;
50417;SDS011;36346;48.280;14.292;2023-09-30T13:58:35;9.36;;;8.39;;
50417;SDS011;36346;48.280;14.292;2023-09-30T14:01:04;8.73;;;7.94;;
50417;SDS011;36346;48.280;14.292;2023-09-30T14:03:32;9.34;;;8.43;;
50417;SDS011;36346;48.280;14.292;2023-09-30T14:06:01;9.53;;;8.45;;
50417;SDS011;36346;48.280;14.292;2023-09-30T14:08:29;9.21;;;8.18;;
50417;SDS011;36346;48.280;14.292;2023-09-30T14:10:58;9.14;;;8.22;;
50417;SDS011;36346;48.280;14.292;2023-09-30T14:13:26;8.94;;;8.05;;
50417;SDS011;36346;48.280;14.292;2023-09-30T14:15:54;8.00;;;7.38;;
50417;SDS011;36346;48.280;14.292;2023-09-30T14:18:22;7.80;;;7.19;;
50417;SDS011;36346;48.280;14.292;2023-09-30T14:20:50;7.97;;;7.24;;
50417;SDS011;36346;48.280;14.292;2023-09-30T14:23:18;7.45;;;6.83;;
50417;SDS011;36346;48.280;14.292;2023-09-30T14:25:46;7.97;;;7.28;;
50417;SDS011;36346;48.280;14.292;2023-09-30T14:28:14;7.74;;;7.03;;
50417;SDS011;36346;48.280;14.292;2023-09-30T14:30:42;7.40;;;6.89;;
50417;SDS011;36346;48.280;14.292;2023-09-30T14:33:12;7.77;;;7.27;;
50417;SDS011;36346;48.280;14.292;2023-09-30T14:35:40;6.92;;;6.39;;
50417;SDS011;36346;48.280;14.292;2023-09-30T14:38:08;8.22;;;7.35;;
50417;SDS011;36346;48.280;14.292;2023-09-30T14:40:36;8.93;;;8.00;;
50417;SDS011;36346;48.280;14.292;2023-09-30T14:43:07;7.78;;;7.11;;
50417;SDS011;36346;48.280;14.292;2023-09-30T14:45:39;7.77;;;7.24;;
50417;SDS011;36346;48.280;14.292;2023-09-30T14:48:08;7.26;;;6.77;;
50417;SDS011;36346;48.280;14.292;2023-09-30T14:50:37;6.63;;;6.25;;
50417;SDS011;36346;48.280;14.292;2023-09-30T14:53:04;6.60;;;6.09;;